createdAt,value
2018-06-07T00:00:17.228Z,19.60
2018-06-07T00:04:20.711Z,19.60
2018-06-07T00:08:24.043Z,19.50
2018-06-07T00:12:27.431Z,19.50
2018-06-07T00:16:31.110Z,19.40
2018-06-07T00:20:35.841Z,19.40
2018-06-07T00:24:39.193Z,19.30
2018-06-07T00:28:42.546Z,19.30
2018-06-07T00:32:45.855Z,19.20
2018-06-07T00:36:49.203Z,19.20
2018-06-07T00:40:52.535Z,19.10
2018-06-07T00:44:55.871Z,19.10
2018-06-07T00:48:59.210Z,19.00
2018-06-07T00:53:02.556Z,19.00
2018-06-07T00:57:07.890Z,18.90
2018-06-07T01:01:11.238Z,18.90
2018-06-07T01:05:14.588Z,18.80
2018-06-07T01:09:17.939Z,18.80
2018-06-07T01:13:21.270Z,18.70
2018-06-07T01:17:24.599Z,18.70
2018-06-07T01:21:27.950Z,18.70
2018-06-07T01:25:31.303Z,18.60
2018-06-07T01:29:45.962Z,18.50
2018-06-07T01:33:50.283Z,18.50
2018-06-07T01:38:04.926Z,18.40
2018-06-07T01:42:08.346Z,18.40
2018-06-07T01:46:11.699Z,18.30
2018-06-07T01:50:15.316Z,18.20
2018-06-07T01:54:18.656Z,18.10
2018-06-07T01:58:22.019Z,18.10
2018-06-07T02:02:25.370Z,18.00
2018-06-07T02:06:28.732Z,17.90
2018-06-07T02:10:32.903Z,17.80
2018-06-07T02:14:36.243Z,17.70
2018-06-07T02:18:39.574Z,17.60
2018-06-07T02:22:42.994Z,17.60
2018-06-07T02:26:46.352Z,17.50
2018-06-07T02:30:49.835Z,17.40
2018-06-07T02:34:53.134Z,17.30
2018-06-07T02:38:56.529Z,17.30
2018-06-07T02:42:59.937Z,17.20
2018-06-07T02:47:03.296Z,17.20
2018-06-07T02:51:06.768Z,17.10
2018-06-07T02:55:10.087Z,17.00
2018-06-07T02:59:13.412Z,17.00
2018-06-07T03:03:16.774Z,16.90
2018-06-07T03:07:20.123Z,16.90
2018-06-07T03:11:23.635Z,16.80
2018-06-07T03:15:27.019Z,16.80
2018-06-07T03:19:30.350Z,16.70
2018-06-07T03:23:33.730Z,16.70
2018-06-07T03:27:37.067Z,16.60
2018-06-07T03:31:40.499Z,16.60
2018-06-07T03:35:46.908Z,16.60
2018-06-07T03:39:50.267Z,16.50
2018-06-07T03:43:53.633Z,16.50
2018-06-07T03:52:00.057Z,16.40
2018-06-07T03:56:03.415Z,16.40
2018-06-07T04:00:06.835Z,16.40
2018-06-07T04:04:10.229Z,16.40
2018-06-07T04:08:13.631Z,16.40
2018-06-07T04:12:16.974Z,16.40
2018-06-07T04:16:20.338Z,16.40
2018-06-07T04:20:23.692Z,16.40
2018-06-07T04:24:27.046Z,16.40
2018-06-07T04:28:30.452Z,16.40
2018-06-07T04:32:33.823Z,16.40
2018-06-07T04:36:37.168Z,16.50
2018-06-07T04:40:41.365Z,16.50
2018-06-07T04:44:44.703Z,16.50
2018-06-07T04:52:51.124Z,16.50
2018-06-07T04:56:54.452Z,16.50
2018-06-07T05:00:57.816Z,16.60
2018-06-07T05:05:01.167Z,16.60
2018-06-07T05:09:07.904Z,16.60
2018-06-07T05:13:11.275Z,16.70
2018-06-07T05:17:14.607Z,16.70
2018-06-07T05:21:19.383Z,16.80
2018-06-07T05:25:22.779Z,16.80
2018-06-07T05:29:26.162Z,16.80
2018-06-07T05:33:29.506Z,16.90
2018-06-07T05:37:32.877Z,16.90
2018-06-07T05:41:36.266Z,17.00
2018-06-07T05:45:39.611Z,17.10
2018-06-07T05:49:42.968Z,17.10
2018-06-07T05:53:46.352Z,17.20
2018-06-07T05:57:49.695Z,17.20
2018-06-07T06:01:53.122Z,17.30
2018-06-07T06:05:56.475Z,17.40
2018-06-07T06:09:59.867Z,17.40
2018-06-07T06:14:03.254Z,17.50
2018-06-07T06:18:06.598Z,17.60
2018-06-07T06:26:13.029Z,17.80
2018-06-07T06:30:16.397Z,17.80
2018-06-07T06:34:19.767Z,17.90
2018-06-07T06:38:31.528Z,18.00
2018-06-07T06:42:34.862Z,18.10
2018-06-07T06:46:42.458Z,18.20
2018-06-07T06:50:45.821Z,18.30
2018-06-07T06:54:49.174Z,18.40
2018-06-07T06:58:52.528Z,18.50
2018-06-07T07:02:55.900Z,18.60
2018-06-07T07:06:59.236Z,18.70
2018-06-07T07:11:02.639Z,18.80
2018-06-07T07:15:06.031Z,18.90
2018-06-07T07:19:09.375Z,19.00
2018-06-07T07:23:12.771Z,19.10
2018-06-07T07:27:16.131Z,19.30
2018-06-07T07:31:19.580Z,19.40
2018-06-07T07:35:22.933Z,19.50
2018-06-07T07:39:26.300Z,19.60
2018-06-07T07:43:29.655Z,19.70
2018-06-07T07:47:33.027Z,19.80
2018-06-07T07:51:36.482Z,20.00
2018-06-07T07:55:39.854Z,20.10
2018-06-07T07:59:43.213Z,20.20
2018-06-07T08:03:46.511Z,20.40
2018-06-07T08:07:49.874Z,20.50
2018-06-07T08:11:53.290Z,20.70
2018-06-07T08:15:56.660Z,20.80
2018-06-07T08:20:00.013Z,21.00
2018-06-07T08:24:03.346Z,21.20
2018-06-07T08:28:06.719Z,21.30
2018-06-07T08:32:10.774Z,21.50
2018-06-07T08:36:14.123Z,21.60
2018-06-07T08:40:17.479Z,21.80
2018-06-07T08:44:20.802Z,22.00
2018-06-07T08:48:24.150Z,22.20
2018-06-07T08:52:27.530Z,22.30
2018-06-07T08:56:30.895Z,22.50
2018-06-07T09:00:34.300Z,22.70
2018-06-07T09:04:37.562Z,22.80
2018-06-07T09:08:40.902Z,23.00
2018-06-07T09:12:44.239Z,23.20
2018-06-07T09:16:47.603Z,23.30
2018-06-07T09:20:50.954Z,23.60
2018-06-07T09:24:54.336Z,23.90
2018-06-07T09:28:57.710Z,24.10
2018-06-07T09:33:01.075Z,24.30
2018-06-07T09:37:04.441Z,24.60
2018-06-07T09:41:07.799Z,24.90
2018-06-07T09:45:11.127Z,25.10
2018-06-07T09:49:14.459Z,25.40
2018-06-07T09:53:17.806Z,25.60
2018-06-07T09:57:21.155Z,25.80
2018-06-07T10:01:24.615Z,26.00
2018-06-07T10:05:28.282Z,26.30
2018-06-07T10:09:31.669Z,26.50
2018-06-07T10:13:35.098Z,26.70
2018-06-07T10:17:41.443Z,26.90
2018-06-07T10:21:44.795Z,27.10
2018-06-07T10:25:48.100Z,27.40
2018-06-07T10:29:51.443Z,27.60
2018-06-07T10:33:54.798Z,27.80
2018-06-07T10:37:58.162Z,28.00
2018-06-07T10:46:04.737Z,28.40
2018-06-07T10:50:08.072Z,28.70
2018-06-07T10:54:11.426Z,28.80
2018-06-07T10:58:14.806Z,29.10
2018-06-07T11:02:18.136Z,29.20
2018-06-07T11:06:21.492Z,29.40
2018-06-07T11:10:24.851Z,29.60
2018-06-07T11:14:28.215Z,29.70
2018-06-07T11:18:31.587Z,29.90
2018-06-07T11:22:34.934Z,30.00
2018-06-07T11:26:38.254Z,30.10
2018-06-07T11:30:41.639Z,30.30
2018-06-07T11:34:44.986Z,30.40
2018-06-07T11:38:48.341Z,30.50
2018-06-07T11:42:51.678Z,30.60
2018-06-07T11:46:55.083Z,30.80
2018-06-07T11:50:58.462Z,30.80
2018-06-07T11:55:01.854Z,31.00
2018-06-07T11:59:05.327Z,31.10
2018-06-07T12:03:08.658Z,31.20
2018-06-07T12:07:12.035Z,31.30
2018-06-07T12:11:15.407Z,31.30
2018-06-07T12:15:18.767Z,31.40
2018-06-07T12:19:22.116Z,31.50
2018-06-07T12:23:25.438Z,31.60
2018-06-07T12:27:28.807Z,31.70
2018-06-07T12:31:32.443Z,31.80
2018-06-07T12:35:35.796Z,31.90
2018-06-07T12:39:39.149Z,32.00
2018-06-07T12:43:42.519Z,32.10
2018-06-07T12:47:45.887Z,32.10
2018-06-07T12:51:49.217Z,32.20
2018-06-07T12:55:52.594Z,32.20
2018-06-07T12:59:55.927Z,32.20
2018-06-07T13:03:59.282Z,32.30
2018-06-07T13:08:02.670Z,32.40
2018-06-07T13:12:06.039Z,32.40
2018-06-07T13:16:09.412Z,32.50
2018-06-07T13:24:15.843Z,32.70
2018-06-07T13:28:19.182Z,32.70
2018-06-07T13:32:22.518Z,32.80
2018-06-07T13:36:25.862Z,32.80
2018-06-07T13:40:29.227Z,32.80
2018-06-07T13:44:32.618Z,32.90
2018-06-07T13:48:35.975Z,33.00
2018-06-07T13:52:39.294Z,33.00
2018-06-07T13:56:42.670Z,33.00
2018-06-07T14:00:46.128Z,33.10
2018-06-07T14:04:49.513Z,33.20
2018-06-07T14:08:52.857Z,33.20
2018-06-07T14:12:56.223Z,33.20
2018-06-07T14:16:59.608Z,33.20
2018-06-07T14:21:02.955Z,33.30
2018-06-07T14:25:06.334Z,33.30
2018-06-07T14:29:09.663Z,33.30
2018-06-07T14:33:13.013Z,33.30
2018-06-07T14:37:16.375Z,33.30
2018-06-07T14:41:19.792Z,33.30
2018-06-07T14:45:23.174Z,33.20
2018-06-07T14:49:26.844Z,33.20
2018-06-07T14:53:30.233Z,33.20
2018-06-07T14:57:33.632Z,33.20
2018-06-07T15:01:37.080Z,33.20
2018-06-07T15:05:40.538Z,33.20
2018-06-07T15:09:43.950Z,33.20
2018-06-07T15:13:47.285Z,33.20
2018-06-07T15:17:50.675Z,33.20
2018-06-07T15:21:54.123Z,33.20
2018-06-07T15:25:57.489Z,33.30
2018-06-07T15:30:00.874Z,33.30
2018-06-07T15:34:04.215Z,33.30
2018-06-07T15:38:07.563Z,33.30
2018-06-07T15:42:10.894Z,33.40
2018-06-07T15:46:14.236Z,33.50
2018-06-07T15:50:17.583Z,33.70
2018-06-07T15:54:20.974Z,33.90
2018-06-07T15:58:24.299Z,34.10
2018-06-07T16:02:27.652Z,34.20
2018-06-07T16:06:30.978Z,34.40
2018-06-07T16:10:34.334Z,34.60
2018-06-07T16:14:37.690Z,34.70
2018-06-07T16:18:41.024Z,35.00
2018-06-07T16:22:44.370Z,35.10
2018-06-07T16:26:47.723Z,35.10
2018-06-07T16:30:51.076Z,35.20
2018-06-07T16:34:54.384Z,35.10
2018-06-07T16:38:57.722Z,35.00
2018-06-07T16:43:01.051Z,34.90
2018-06-07T16:47:04.391Z,34.70
2018-06-07T16:51:07.726Z,34.60
2018-06-07T16:55:11.035Z,34.40
2018-06-07T16:59:14.383Z,34.20
2018-06-07T17:03:17.727Z,34.00
2018-06-07T17:07:21.059Z,33.70
2018-06-07T17:11:24.420Z,33.50
2018-06-07T17:15:27.770Z,33.40
2018-06-07T17:19:31.124Z,33.20
2018-06-07T17:23:34.494Z,33.00
2018-06-07T17:27:37.823Z,32.90
2018-06-07T17:31:41.143Z,32.70
2018-06-07T17:35:44.486Z,32.50
2018-06-07T17:39:47.802Z,32.20
2018-06-07T17:43:51.127Z,32.00
2018-06-07T17:47:54.497Z,31.80
2018-06-07T17:51:57.890Z,31.60
2018-06-07T17:56:01.193Z,31.40
2018-06-07T18:00:04.574Z,31.30
2018-06-07T18:04:07.911Z,31.10
2018-06-07T18:08:11.267Z,30.90
2018-06-07T18:12:14.591Z,30.80
2018-06-07T18:16:17.960Z,30.60
2018-06-07T18:20:21.271Z,30.50
2018-06-07T18:24:24.606Z,30.30
2018-06-07T18:28:27.955Z,30.20
2018-06-07T18:32:31.291Z,30.10
2018-06-07T18:36:34.642Z,29.90
2018-06-07T18:40:37.975Z,29.90
2018-06-07T18:44:41.326Z,29.70
2018-06-07T18:48:44.686Z,29.60
2018-06-07T18:52:47.982Z,29.40
2018-06-07T18:56:51.340Z,29.30
2018-06-07T19:00:54.695Z,29.10
2018-06-07T19:04:58.079Z,29.00
2018-06-07T19:09:06.907Z,28.90
2018-06-07T19:13:15.663Z,28.80
2018-06-07T19:17:19.037Z,28.60
2018-06-07T19:21:22.384Z,28.40
2018-06-07T19:25:31.155Z,28.30
2018-06-07T19:29:34.651Z,28.30
2018-06-07T19:33:43.459Z,28.10
2018-06-07T19:37:46.818Z,27.90
2018-06-07T19:41:55.586Z,27.80
2018-06-07T19:45:58.908Z,27.60
2018-06-07T19:50:02.321Z,27.50
2018-06-07T19:54:05.672Z,27.30
2018-06-07T19:58:09.002Z,27.20
2018-06-07T20:02:12.367Z,27.10
2018-06-07T20:06:15.724Z,26.90
2018-06-07T20:10:19.144Z,26.80
2018-06-07T20:14:22.585Z,26.60
2018-06-07T20:22:28.951Z,26.30
2018-06-07T20:26:32.315Z,26.20
2018-06-07T20:30:35.654Z,26.10
2018-06-07T20:34:38.995Z,25.90
2018-06-07T20:38:42.334Z,25.80
2018-06-07T20:42:45.675Z,25.60
2018-06-07T20:46:49.004Z,25.50
2018-06-07T20:50:52.338Z,25.40
2018-06-07T20:54:55.659Z,25.30
2018-06-07T20:58:59.106Z,25.20
2018-06-07T21:03:02.507Z,25.10
2018-06-07T21:07:08.830Z,25.00
2018-06-07T21:11:12.219Z,24.90
2018-06-07T21:15:15.532Z,24.80
2018-06-07T21:19:18.880Z,24.70
2018-06-07T21:23:22.207Z,24.50
2018-06-07T21:27:25.664Z,24.40
2018-06-07T21:31:28.997Z,24.30
2018-06-07T21:35:32.340Z,24.20
2018-06-07T21:39:37.003Z,24.20
2018-06-07T21:43:40.361Z,24.10
2018-06-07T21:47:43.700Z,24.00
2018-06-07T21:51:47.130Z,23.90
2018-06-07T21:55:50.481Z,23.90
2018-06-07T21:59:53.837Z,23.80
2018-06-07T22:03:57.186Z,23.70
2018-06-07T22:08:00.498Z,23.60
2018-06-07T22:12:03.932Z,23.50
2018-06-07T22:16:07.286Z,23.40
2018-06-07T22:20:10.693Z,23.30
2018-06-07T22:24:14.066Z,23.30
2018-06-07T22:28:17.362Z,23.10
2018-06-07T22:32:20.781Z,23.10
2018-06-07T22:36:24.118Z,23.00
2018-06-07T22:40:27.637Z,22.90
2018-06-07T22:44:30.967Z,22.80
2018-06-07T22:48:34.286Z,22.70
2018-06-07T22:52:37.627Z,22.60
2018-06-07T23:00:44.036Z,22.50
2018-06-07T23:04:47.366Z,22.50
2018-06-07T23:08:50.685Z,22.40
2018-06-07T23:12:54.015Z,22.30
2018-06-07T23:16:57.395Z,22.20
2018-06-07T23:21:00.721Z,22.20
2018-06-07T23:25:04.098Z,22.10
2018-06-07T23:29:07.423Z,22.10
2018-06-07T23:33:10.759Z,22.00
2018-06-07T23:37:14.130Z,21.90
2018-06-07T23:41:17.499Z,21.80
2018-06-07T23:45:20.837Z,21.80
2018-06-07T23:49:24.167Z,21.80
2018-06-07T23:53:27.544Z,21.70
2018-06-07T23:57:30.882Z,21.60
